createdAt,value
2019-04-23T00:01:14.796Z,12.37
2019-04-23T00:03:42.022Z,10.03
2019-04-23T00:06:19.066Z,12.53
2019-04-23T00:08:58.108Z,14.25
2019-04-23T00:11:25.467Z,10.82
2019-04-23T00:13:59.424Z,9.98
2019-04-23T00:16:50.929Z,11.08
2019-04-23T00:19:10.359Z,12.07
2019-04-23T00:21:52.218Z,13.58
2019-04-23T00:25:11.766Z,9.28
2019-04-23T00:27:36.659Z,11.08
2019-04-23T00:29:58.724Z,11.70
2019-04-23T00:32:31.834Z,11.80
2019-04-23T00:35:01.091Z,13.18
2019-04-23T00:37:49.564Z,11.48
2019-04-23T00:40:11.418Z,11.70
2019-04-23T00:42:51.729Z,8.35
2019-04-23T00:45:16.810Z,12.45
2019-04-23T00:47:51.414Z,11.38
2019-04-23T00:50:28.398Z,13.68
2019-04-23T00:52:57.653Z,10.98
2019-04-23T00:55:35.175Z,9.48
2019-04-23T00:58:19.885Z,9.33
2019-04-23T01:03:16.920Z,12.28
2019-04-23T01:05:52.695Z,9.13
2019-04-23T01:08:26.491Z,11.78
2019-04-23T01:13:48.198Z,10.38
2019-04-23T01:16:28.640Z,11.15
2019-04-23T01:21:15.717Z,11.40
2019-04-23T01:24:13.490Z,11.63
2019-04-23T01:27:41.534Z,11.12
2019-04-23T01:35:17.566Z,10.40
2019-04-23T01:37:52.333Z,12.20
2019-04-23T01:40:18.770Z,11.25
2019-04-23T01:45:31.037Z,10.75
2019-04-23T01:48:00.014Z,14.80
2019-04-23T01:50:37.797Z,11.88
2019-04-23T01:53:15.771Z,11.18
2019-04-23T01:55:43.764Z,7.97
2019-04-23T02:03:26.544Z,16.15
2019-04-23T02:06:00.286Z,13.88
2019-04-23T02:08:32.296Z,13.15
2019-04-23T02:13:42.115Z,12.82
2019-04-23T02:16:12.065Z,14.15
2019-04-23T02:18:48.033Z,12.10
2019-04-23T02:21:23.922Z,12.28
2019-04-23T02:24:22.885Z,12.23
2019-04-23T02:26:37.208Z,16.02
2019-04-23T02:29:26.205Z,15.43
2019-04-23T02:37:00.624Z,14.13
2019-04-23T02:39:47.806Z,14.23
2019-04-23T02:44:38.867Z,15.35
2019-04-23T02:50:15.468Z,16.75
2019-04-23T02:55:08.994Z,14.83
2019-04-23T02:57:39.700Z,21.45
2019-04-23T03:07:59.957Z,20.88
2019-04-23T03:10:31.306Z,23.20
2019-04-23T03:13:27.885Z,15.60
2019-04-23T03:21:42.623Z,15.80
2019-04-23T03:27:17.102Z,14.95
2019-04-23T03:29:51.236Z,22.22
2019-04-23T03:40:06.029Z,15.55
2019-04-23T03:42:34.565Z,16.52
2019-04-23T03:47:50.480Z,18.62
2019-04-23T03:50:23.857Z,17.35
2019-04-23T03:52:47.070Z,16.95
2019-04-23T03:58:04.128Z,18.27
2019-04-23T04:00:37.574Z,19.25
2019-04-23T04:03:27.003Z,15.28
2019-04-23T04:11:25.635Z,16.85
2019-04-23T04:16:00.728Z,22.32
2019-04-23T04:21:16.151Z,22.70
2019-04-23T04:26:29.171Z,14.73
2019-04-23T04:29:06.627Z,23.90
2019-04-23T04:34:10.777Z,15.13
2019-04-23T04:39:06.328Z,14.65
2019-04-23T04:41:55.520Z,14.65
2019-04-23T04:49:36.556Z,17.90
2019-04-23T04:52:11.341Z,16.37
2019-04-23T04:54:22.786Z,21.30
2019-04-23T04:57:12.751Z,14.55
2019-04-23T04:59:50.810Z,16.55
2019-04-23T05:02:38.934Z,11.88
2019-04-23T05:05:02.198Z,12.70
2019-04-23T05:07:30.503Z,11.20
2019-04-23T05:15:04.625Z,15.30
2019-04-23T05:17:55.587Z,19.98
2019-04-23T05:25:17.524Z,15.18
2019-04-23T05:28:02.832Z,14.00
2019-04-23T05:30:34.923Z,11.78
2019-04-23T05:33:04.334Z,12.47
2019-04-23T05:36:02.016Z,12.05
2019-04-23T05:38:29.152Z,12.00
2019-04-23T05:43:23.522Z,11.97
2019-04-23T05:46:02.849Z,10.30
2019-04-23T05:48:33.379Z,12.60
2019-04-23T05:51:04.666Z,8.88
2019-04-23T05:53:42.379Z,8.50
2019-04-23T05:56:09.569Z,9.40
2019-04-23T05:58:43.706Z,8.93
2019-04-23T06:01:51.121Z,11.40
2019-04-23T06:16:55.270Z,8.50
2019-04-23T06:27:06.704Z,23.67
2019-04-23T06:32:13.008Z,18.20
2019-04-23T06:34:47.180Z,15.55
2019-04-23T06:37:27.049Z,13.68
2019-04-23T06:39:57.043Z,13.70
2019-04-23T06:44:59.980Z,13.53
2019-04-23T06:47:37.575Z,12.50
2019-04-23T06:50:09.711Z,11.08
2019-04-23T06:52:43.787Z,9.03
2019-04-23T06:55:20.362Z,7.50
2019-04-23T06:57:58.782Z,8.10
2019-04-23T07:00:27.493Z,13.95
2019-04-23T07:02:59.710Z,6.97
2019-04-23T07:06:05.369Z,8.70
2019-04-23T07:08:38.520Z,10.95
2019-04-23T07:11:11.089Z,8.40
2019-04-23T07:13:41.344Z,9.85
2019-04-23T07:16:09.488Z,8.18
2019-04-23T07:18:41.199Z,13.75
2019-04-23T07:21:17.970Z,6.55
2019-04-23T07:29:16.024Z,7.47
2019-04-23T07:34:08.392Z,11.55
2019-04-23T07:36:41.008Z,6.90
2019-04-23T07:39:35.226Z,5.67
2019-04-23T07:45:10.403Z,10.60
2019-04-23T07:48:06.199Z,6.33
2019-04-23T07:50:39.260Z,10.08
2019-04-23T07:58:23.807Z,14.18
2019-04-23T08:01:03.697Z,16.85
2019-04-23T08:03:39.573Z,15.63
2019-04-23T08:06:10.098Z,17.95
2019-04-23T08:13:56.907Z,28.52
2019-04-23T08:19:00.532Z,6.72
2019-04-23T08:21:34.347Z,8.48
2019-04-23T08:24:45.355Z,8.98
2019-04-23T08:30:06.118Z,10.43
2019-04-23T08:32:36.962Z,6.05
2019-04-23T08:35:16.434Z,7.85
2019-04-23T08:38:04.170Z,7.40
2019-04-23T08:40:30.731Z,7.95
2019-04-23T08:43:12.875Z,5.25
2019-04-23T08:45:46.251Z,8.18
2019-04-23T08:50:57.786Z,8.20
2019-04-23T08:56:07.638Z,10.15
2019-04-23T08:58:38.051Z,6.55
2019-04-23T09:04:00.849Z,8.45
2019-04-23T09:06:21.592Z,6.35
2019-04-23T09:09:17.945Z,13.80
2019-04-23T09:11:44.111Z,14.30
2019-04-23T09:14:00.933Z,6.20
2019-04-23T09:16:44.695Z,14.00
2019-04-23T09:19:15.610Z,10.15
2019-04-23T09:21:50.376Z,7.42
2019-04-23T09:24:20.075Z,5.55
2019-04-23T09:26:58.725Z,9.20
2019-04-23T09:29:44.107Z,5.83
2019-04-23T09:35:05.923Z,8.05
2019-04-23T09:37:59.610Z,5.95
2019-04-23T09:44:21.631Z,7.62
2019-04-23T09:46:53.047Z,4.62
2019-04-23T09:49:26.446Z,7.40
2019-04-23T09:52:01.085Z,6.72
2019-04-23T09:54:45.810Z,8.25
2019-04-23T09:57:04.074Z,3.87
2019-04-23T09:59:43.297Z,5.70
2019-04-23T10:02:10.420Z,9.68
2019-04-23T10:04:39.767Z,6.90
2019-04-23T10:07:12.554Z,6.20
2019-04-23T10:09:32.284Z,6.65
2019-04-23T10:12:07.204Z,4.25
2019-04-23T10:14:52.879Z,4.90
2019-04-23T10:17:16.052Z,4.95
2019-04-23T10:19:48.706Z,8.03
2019-04-23T10:22:23.035Z,4.08
2019-04-23T10:24:57.216Z,5.97
2019-04-23T10:27:29.558Z,7.53
2019-04-23T10:30:01.834Z,9.80
2019-04-23T10:32:35.885Z,6.17
2019-04-23T10:35:24.343Z,5.12
2019-04-23T10:37:50.983Z,11.70
2019-04-23T10:42:51.711Z,5.58
2019-04-23T10:46:20.320Z,6.80
2019-04-23T10:49:47.705Z,5.55
2019-04-23T10:52:19.059Z,8.85
2019-04-23T10:57:17.118Z,5.90
2019-04-23T11:05:17.532Z,11.08
2019-04-23T11:07:47.130Z,7.50
2019-04-23T11:10:16.125Z,7.17
2019-04-23T11:12:50.709Z,7.37
2019-04-23T11:15:55.889Z,18.40
2019-04-23T11:18:34.111Z,5.90
2019-04-23T11:23:13.533Z,6.95
2019-04-23T11:25:48.560Z,8.93
2019-04-23T11:31:35.243Z,6.12
2019-04-23T11:34:47.858Z,7.00
2019-04-23T11:39:39.813Z,8.73
2019-04-23T11:44:41.511Z,8.40
2019-04-23T11:48:00.762Z,6.40
2019-04-23T11:49:58.184Z,6.65
2019-04-23T11:55:08.410Z,8.05
2019-04-23T12:00:22.328Z,8.25
2019-04-23T12:03:02.643Z,5.58
2019-04-23T12:06:25.267Z,5.28
2019-04-23T12:09:16.096Z,5.95
2019-04-23T12:17:26.345Z,5.33
2019-04-23T12:20:12.152Z,5.92
2019-04-23T12:22:38.927Z,12.37
2019-04-23T12:27:33.438Z,4.53
2019-04-23T12:30:22.813Z,6.25
2019-04-23T12:32:56.075Z,5.90
2019-04-23T12:35:29.108Z,6.72
2019-04-23T12:38:23.832Z,6.50
2019-04-23T12:40:49.219Z,9.80
2019-04-23T12:45:57.583Z,11.65
2019-04-23T12:48:49.376Z,5.80
2019-04-23T12:51:12.679Z,8.33
2019-04-23T12:53:59.437Z,8.35
2019-04-23T12:56:30.203Z,13.43
2019-04-23T12:58:44.997Z,18.37
2019-04-23T13:01:38.475Z,10.65
2019-04-23T13:03:50.582Z,7.85
2019-04-23T13:06:28.032Z,14.93
2019-04-23T13:09:19.285Z,9.90
2019-04-23T13:11:41.134Z,11.90
2019-04-23T13:14:17.411Z,11.35
2019-04-23T13:17:02.425Z,15.28
2019-04-23T13:19:37.254Z,10.75
2019-04-23T13:22:08.147Z,11.10
2019-04-23T13:24:48.904Z,18.75
2019-04-23T13:29:56.701Z,14.83
2019-04-23T13:32:27.496Z,7.20
2019-04-23T13:35:11.065Z,10.08
2019-04-23T13:40:09.519Z,8.75
2019-04-23T13:42:52.559Z,11.28
2019-04-23T13:45:44.624Z,5.60
2019-04-23T13:48:06.171Z,9.40
2019-04-23T13:50:37.139Z,7.78
2019-04-23T13:55:34.846Z,9.38
2019-04-23T14:03:20.018Z,8.28
2019-04-23T14:11:40.528Z,8.05
2019-04-23T14:21:35.330Z,9.60
2019-04-23T14:24:16.672Z,11.12
2019-04-23T14:29:13.185Z,32.65
2019-04-23T14:31:53.721Z,11.05
2019-04-23T14:34:19.612Z,13.85
2019-04-23T14:36:57.852Z,48.83
2019-04-23T14:42:21.753Z,10.35
2019-04-23T14:44:56.677Z,22.48
2019-04-23T14:50:24.400Z,10.23
2019-04-23T14:52:39.072Z,8.65
2019-04-23T14:55:43.200Z,9.15
2019-04-23T14:57:52.795Z,18.90
2019-04-23T15:00:25.329Z,10.50
2019-04-23T15:03:00.261Z,9.98
2019-04-23T15:05:38.219Z,21.80
2019-04-23T15:07:58.176Z,16.32
2019-04-23T15:10:43.941Z,13.18
2019-04-23T15:13:10.861Z,10.13
2019-04-23T15:15:51.450Z,10.28
2019-04-23T15:18:50.640Z,23.65
2019-04-23T15:28:32.651Z,10.43
2019-04-23T15:31:33.261Z,12.33
2019-04-23T15:34:08.838Z,10.80
2019-04-23T15:44:13.274Z,15.55
2019-04-23T15:46:57.110Z,14.30
2019-04-23T15:52:10.555Z,9.63
2019-04-23T15:57:14.569Z,12.35
2019-04-23T15:59:44.631Z,11.63
2019-04-23T16:01:46.955Z,19.95
2019-04-23T16:06:51.899Z,13.60
2019-04-23T16:09:59.828Z,10.30
2019-04-23T16:12:27.399Z,10.45
2019-04-23T16:15:02.482Z,7.60
2019-04-23T16:17:41.359Z,10.28
2019-04-23T16:20:37.945Z,13.53
2019-04-23T16:22:55.251Z,10.30
2019-04-23T16:25:49.772Z,10.48
2019-04-23T16:28:12.863Z,11.30
2019-04-23T16:30:48.154Z,10.32
2019-04-23T16:33:16.929Z,10.58
2019-04-23T16:36:05.575Z,7.25
2019-04-23T16:38:38.963Z,11.35
2019-04-23T16:41:09.899Z,12.58
2019-04-23T16:44:05.686Z,9.60
2019-04-23T16:46:20.987Z,9.58
2019-04-23T16:49:03.245Z,10.78
2019-04-23T16:51:32.196Z,11.30
2019-04-23T16:54:03.039Z,11.48
2019-04-23T16:59:15.391Z,11.80
2019-04-23T17:01:44.328Z,12.28
2019-04-23T17:04:31.121Z,7.45
2019-04-23T17:06:52.471Z,8.55
2019-04-23T17:09:26.451Z,6.72
2019-04-23T17:12:04.597Z,7.72
2019-04-23T17:14:32.241Z,8.85
2019-04-23T17:17:00.916Z,9.73
2019-04-23T17:22:09.503Z,13.28
2019-04-23T17:24:51.762Z,14.68
2019-04-23T17:27:26.280Z,12.68
2019-04-23T17:29:58.002Z,6.72
2019-04-23T17:32:38.453Z,8.83
2019-04-23T17:35:30.041Z,11.22
2019-04-23T17:38:00.729Z,9.58
2019-04-23T17:40:54.076Z,7.78
2019-04-23T17:43:06.036Z,8.98
2019-04-23T17:48:20.386Z,8.98
2019-04-23T17:51:04.132Z,11.08
2019-04-23T17:56:16.797Z,14.00
2019-04-23T17:58:45.604Z,11.00
2019-04-23T18:04:06.949Z,9.55
2019-04-23T18:06:38.093Z,9.45
2019-04-23T18:11:39.946Z,9.88
2019-04-23T18:14:08.552Z,10.72
2019-04-23T18:19:16.754Z,11.15
2019-04-23T18:22:16.116Z,17.27
2019-04-23T18:30:41.049Z,20.72
2019-04-23T18:36:08.542Z,14.35
2019-04-23T18:38:46.629Z,11.18
2019-04-23T18:41:12.186Z,9.38
2019-04-23T18:43:50.981Z,9.98
2019-04-23T18:46:35.549Z,18.23
2019-04-23T18:48:53.117Z,17.60
2019-04-23T18:51:37.070Z,12.15
2019-04-23T18:54:02.518Z,13.35
2019-04-23T18:56:58.299Z,10.35
2019-04-23T18:59:24.972Z,13.55
2019-04-23T19:02:20.622Z,8.63
2019-04-23T19:10:46.404Z,12.70
2019-04-23T19:13:21.171Z,10.43
2019-04-23T19:15:59.744Z,13.25
2019-04-23T19:18:41.621Z,12.18
2019-04-23T19:23:39.382Z,12.25
2019-04-23T19:26:08.034Z,10.72
2019-04-23T19:28:50.355Z,15.50
2019-04-23T19:31:27.573Z,10.72
2019-04-23T19:34:18.219Z,11.40
2019-04-23T19:36:51.298Z,12.13
2019-04-23T19:39:17.784Z,9.80
2019-04-23T19:41:55.881Z,13.78
2019-04-23T19:47:09.627Z,11.50
2019-04-23T19:49:32.784Z,11.68
2019-04-23T19:52:00.924Z,10.18
2019-04-23T19:54:42.696Z,13.45
2019-04-23T19:57:17.746Z,11.10
2019-04-23T19:59:59.061Z,10.68
2019-04-23T20:05:01.020Z,10.35
2019-04-23T20:07:42.736Z,11.35
2019-04-23T20:09:56.630Z,10.70
2019-04-23T20:12:32.130Z,14.63
2019-04-23T20:15:02.883Z,10.78
2019-04-23T20:20:08.519Z,10.93
2019-04-23T20:28:05.745Z,9.08
2019-04-23T20:31:03.494Z,11.63
2019-04-23T20:36:15.792Z,11.60
2019-04-23T20:38:53.234Z,9.58
2019-04-23T20:41:21.199Z,10.28
2019-04-23T20:44:03.297Z,15.60
2019-04-23T20:46:27.565Z,8.98
2019-04-23T20:49:07.269Z,10.50
2019-04-23T20:51:33.798Z,15.15
2019-04-23T20:54:12.294Z,11.12
2019-04-23T20:56:42.511Z,9.98
2019-04-23T20:59:33.658Z,11.12
2019-04-23T21:02:13.663Z,12.33
2019-04-23T21:04:51.086Z,10.80
2019-04-23T21:07:20.666Z,9.33
2019-04-23T21:10:00.786Z,11.35
2019-04-23T21:12:43.201Z,11.12
2019-04-23T21:15:04.831Z,11.55
2019-04-23T21:17:46.831Z,11.68
2019-04-23T21:20:18.220Z,14.20
2019-04-23T21:22:45.004Z,13.58
2019-04-23T21:25:14.436Z,11.48
2019-04-23T21:33:33.775Z,17.23
2019-04-23T21:41:50.887Z,15.05
2019-04-23T21:47:04.674Z,15.20
2019-04-23T21:51:57.403Z,13.58
2019-04-23T21:54:35.315Z,11.45
2019-04-23T21:56:58.698Z,14.58
2019-04-23T21:59:41.371Z,10.38
2019-04-23T22:02:13.399Z,19.80
2019-04-23T22:05:01.219Z,17.82
2019-04-23T22:07:29.132Z,16.62
2019-04-23T22:09:57.464Z,15.20
2019-04-23T22:12:41.289Z,18.48
2019-04-23T22:14:55.866Z,16.62
2019-04-23T22:17:37.432Z,11.78
2019-04-23T22:20:21.481Z,17.02
2019-04-23T22:22:56.883Z,19.07
2019-04-23T22:25:13.351Z,17.17
2019-04-23T22:27:55.056Z,19.32
2019-04-23T22:30:31.457Z,22.98
2019-04-23T22:33:03.352Z,21.20
2019-04-23T22:35:37.874Z,27.20
2019-04-23T22:38:13.252Z,19.10
2019-04-23T22:40:49.449Z,21.07
2019-04-23T22:46:05.355Z,30.82
2019-04-23T22:48:34.265Z,29.67
2019-04-23T22:53:37.830Z,27.98
2019-04-23T22:56:05.385Z,30.80
2019-04-23T22:58:51.614Z,24.27
2019-04-23T23:01:31.192Z,29.07
2019-04-23T23:04:04.571Z,31.37
2019-04-23T23:06:48.920Z,32.05
2019-04-23T23:14:20.155Z,43.23
2019-04-23T23:16:56.717Z,32.65
2019-04-23T23:19:28.261Z,48.17
2019-04-23T23:24:38.659Z,36.83
2019-04-23T23:27:09.056Z,32.38
2019-04-23T23:29:54.846Z,28.92
2019-04-23T23:35:14.627Z,27.73
2019-04-23T23:37:24.019Z,31.48
2019-04-23T23:40:11.071Z,37.28
2019-04-23T23:42:34.276Z,23.67
2019-04-23T23:45:21.759Z,25.02
2019-04-23T23:47:52.218Z,44.63
2019-04-23T23:50:19.511Z,34.95
2019-04-23T23:52:59.706Z,30.30
2019-04-23T23:55:24.556Z,35.05
2019-04-23T23:58:07.823Z,27.60
